createdAt,value
2019-03-30T00:01:11.821Z,16.73
2019-03-30T00:03:40.254Z,17.70
2019-03-30T00:06:08.782Z,14.93
2019-03-30T00:08:37.265Z,15.53
2019-03-30T00:11:05.715Z,18.37
2019-03-30T00:13:34.209Z,14.67
2019-03-30T00:16:02.765Z,18.57
2019-03-30T00:18:31.195Z,15.07
2019-03-30T00:20:59.632Z,14.53
2019-03-30T00:23:28.095Z,16.37
2019-03-30T00:25:56.557Z,15.53
2019-03-30T00:28:24.988Z,17.37
2019-03-30T00:30:53.471Z,17.17
2019-03-30T00:33:21.938Z,16.80
2019-03-30T00:35:50.789Z,15.10
2019-03-30T00:38:19.237Z,15.17
2019-03-30T00:40:47.670Z,16.27
2019-03-30T00:43:16.116Z,15.93
2019-03-30T00:45:44.606Z,16.00
2019-03-30T00:48:13.041Z,18.87
2019-03-30T00:50:41.474Z,16.57
2019-03-30T00:53:09.954Z,13.03
2019-03-30T00:55:38.395Z,16.57
2019-03-30T00:58:07.103Z,17.83
2019-03-30T01:00:35.569Z,21.87
2019-03-30T01:03:04.005Z,15.70
2019-03-30T01:05:32.515Z,19.03
2019-03-30T01:08:00.962Z,16.20
2019-03-30T01:10:29.400Z,18.17
2019-03-30T01:12:57.826Z,15.03
2019-03-30T01:15:26.294Z,18.03
2019-03-30T01:17:54.735Z,19.83
2019-03-30T01:20:23.166Z,15.73
2019-03-30T01:22:51.898Z,15.10
2019-03-30T01:25:20.646Z,15.80
2019-03-30T01:27:49.078Z,19.43
2019-03-30T01:30:23.424Z,15.50
2019-03-30T01:32:47.764Z,22.53
2019-03-30T01:35:16.651Z,15.33
2019-03-30T01:37:45.268Z,18.13
2019-03-30T01:40:13.764Z,15.57
2019-03-30T01:42:42.198Z,15.40
2019-03-30T01:45:10.854Z,17.37
2019-03-30T01:47:39.293Z,16.53
2019-03-30T01:50:17.160Z,16.13
2019-03-30T01:52:39.762Z,15.07
2019-03-30T01:55:08.537Z,18.70
2019-03-30T01:57:36.968Z,16.80
2019-03-30T02:00:09.560Z,18.57
2019-03-30T02:02:38.592Z,15.73
2019-03-30T02:05:07.670Z,15.10
2019-03-30T02:07:36.302Z,18.40
2019-03-30T02:10:06.282Z,16.63
2019-03-30T02:12:34.714Z,19.33
2019-03-30T02:15:03.430Z,16.73
2019-03-30T02:17:32.143Z,17.37
2019-03-30T02:20:00.651Z,17.03
2019-03-30T02:22:29.361Z,17.40
2019-03-30T02:24:57.794Z,17.33
2019-03-30T02:27:26.231Z,21.27
2019-03-30T02:29:54.702Z,18.33
2019-03-30T02:32:23.140Z,21.40
2019-03-30T02:34:51.576Z,18.77
2019-03-30T02:37:20.175Z,19.97
2019-03-30T02:39:48.644Z,21.97
2019-03-30T02:42:17.080Z,18.87
2019-03-30T02:44:45.530Z,19.43
2019-03-30T02:47:13.968Z,17.83
2019-03-30T02:49:42.404Z,18.47
2019-03-30T02:52:10.984Z,18.37
2019-03-30T02:54:39.421Z,18.77
2019-03-30T02:57:07.849Z,18.83
2019-03-30T02:59:36.340Z,17.10
2019-03-30T03:02:04.851Z,20.40
2019-03-30T03:04:33.347Z,19.77
2019-03-30T03:07:02.183Z,20.93
2019-03-30T03:09:30.685Z,19.17
2019-03-30T03:11:59.388Z,18.60
2019-03-30T03:14:27.945Z,19.93
2019-03-30T03:16:56.545Z,19.83
2019-03-30T03:19:25.408Z,20.33
2019-03-30T03:21:53.952Z,17.00
2019-03-30T03:24:22.409Z,18.77
2019-03-30T03:26:51.282Z,17.20
2019-03-30T03:29:19.839Z,16.13
2019-03-30T03:31:48.271Z,18.67
2019-03-30T03:34:16.703Z,19.73
2019-03-30T03:36:45.247Z,18.83
2019-03-30T03:39:13.687Z,20.60
2019-03-30T03:41:42.195Z,17.30
2019-03-30T03:44:10.750Z,16.83
2019-03-30T03:46:39.185Z,18.30
2019-03-30T03:49:07.623Z,16.77
2019-03-30T03:51:36.402Z,16.67
2019-03-30T03:54:04.960Z,16.00
2019-03-30T03:56:35.651Z,16.13
2019-03-30T03:59:06.400Z,18.77
2019-03-30T04:01:35.814Z,17.70
2019-03-30T04:04:07.384Z,16.67
2019-03-30T04:06:39.168Z,16.07
2019-03-30T04:09:07.745Z,15.53
2019-03-30T04:11:39.498Z,18.77
2019-03-30T04:14:09.335Z,16.67
2019-03-30T04:16:37.767Z,16.27
2019-03-30T04:19:06.227Z,17.90
2019-03-30T04:21:43.679Z,18.40
2019-03-30T04:24:05.147Z,17.83
2019-03-30T04:26:33.303Z,19.00
2019-03-30T04:29:01.857Z,19.10
2019-03-30T04:31:30.372Z,16.93
2019-03-30T04:33:58.808Z,17.43
2019-03-30T04:36:27.257Z,18.87
2019-03-30T04:38:55.787Z,16.73
2019-03-30T04:41:24.504Z,18.40
2019-03-30T04:43:52.970Z,17.37
2019-03-30T04:46:21.405Z,18.67
2019-03-30T04:48:50.192Z,18.70
2019-03-30T04:51:18.894Z,15.13
2019-03-30T04:53:47.331Z,20.27
2019-03-30T04:56:15.769Z,16.40
2019-03-30T04:58:44.218Z,17.30
2019-03-30T05:01:12.658Z,17.10
2019-03-30T05:03:41.312Z,16.37
2019-03-30T05:06:09.832Z,17.40
2019-03-30T05:08:38.288Z,17.50
2019-03-30T05:11:06.715Z,17.80
2019-03-30T05:13:35.178Z,16.37
2019-03-30T05:16:03.968Z,16.97
2019-03-30T05:18:32.754Z,16.13
2019-03-30T05:21:01.237Z,19.63
2019-03-30T05:23:29.676Z,17.60
2019-03-30T05:25:58.107Z,18.03
2019-03-30T05:28:26.794Z,18.03
2019-03-30T05:30:55.216Z,17.53
2019-03-30T05:33:23.648Z,17.03
2019-03-30T05:35:52.186Z,19.17
2019-03-30T05:38:20.619Z,17.90
2019-03-30T05:40:49.055Z,16.67
2019-03-30T05:43:17.757Z,17.77
2019-03-30T05:45:46.255Z,17.37
2019-03-30T05:48:14.695Z,16.60
2019-03-30T05:50:43.142Z,17.23
2019-03-30T05:53:11.577Z,16.57
2019-03-30T05:55:40.282Z,18.03
2019-03-30T05:58:08.815Z,16.07
2019-03-30T06:00:37.323Z,16.17
2019-03-30T06:03:05.754Z,16.13
2019-03-30T06:05:34.592Z,16.00
2019-03-30T06:08:03.021Z,16.47
2019-03-30T06:10:31.467Z,18.43
2019-03-30T06:12:59.954Z,19.03
2019-03-30T06:15:28.392Z,17.93
2019-03-30T06:17:56.822Z,16.17
2019-03-30T06:20:26.145Z,18.27
2019-03-30T06:22:54.584Z,16.73
2019-03-30T06:25:23.034Z,21.73
2019-03-30T06:27:51.627Z,19.27
2019-03-30T06:30:26.462Z,17.63
2019-03-30T06:32:55.541Z,19.87
2019-03-30T06:35:24.090Z,16.23
2019-03-30T06:37:52.600Z,18.33
2019-03-30T06:40:21.098Z,18.30
2019-03-30T06:42:49.616Z,17.10
2019-03-30T06:45:18.118Z,18.40
2019-03-30T06:47:46.549Z,17.73
2019-03-30T06:50:16.084Z,18.27
2019-03-30T06:52:56.982Z,15.73
2019-03-30T06:55:14.754Z,16.13
2019-03-30T06:57:43.279Z,18.17
2019-03-30T07:00:12.355Z,16.30
2019-03-30T07:02:41.960Z,18.40
2019-03-30T07:05:11.163Z,16.13
2019-03-30T07:07:41.903Z,16.70
2019-03-30T07:10:10.679Z,16.70
2019-03-30T07:12:40.881Z,20.10
2019-03-30T07:15:10.154Z,17.17
2019-03-30T07:17:41.677Z,15.87
2019-03-30T07:20:13.250Z,15.20
2019-03-30T07:22:41.691Z,15.63
2019-03-30T07:25:10.196Z,17.00
2019-03-30T07:27:38.665Z,13.93
2019-03-30T07:30:08.295Z,15.83
2019-03-30T07:32:36.735Z,15.80
2019-03-30T07:35:06.633Z,15.20
2019-03-30T07:37:35.071Z,17.33
2019-03-30T07:40:04.644Z,17.53
2019-03-30T07:42:33.202Z,16.90
2019-03-30T07:45:01.635Z,18.13
2019-03-30T07:47:30.066Z,19.60
2019-03-30T07:49:58.654Z,18.60
2019-03-30T07:52:27.401Z,19.33
2019-03-30T07:54:55.833Z,18.20
2019-03-30T07:57:24.308Z,21.17
2019-03-30T07:59:52.744Z,19.17
2019-03-30T08:02:21.298Z,20.47
2019-03-30T08:04:49.770Z,18.97
2019-03-30T08:07:18.222Z,19.37
2019-03-30T08:09:46.727Z,18.47
2019-03-30T08:12:15.216Z,19.77
2019-03-30T08:14:45.301Z,17.33
2019-03-30T08:17:13.991Z,20.20
2019-03-30T08:19:42.461Z,14.67
2019-03-30T08:22:11.052Z,18.00
2019-03-30T08:24:39.948Z,17.03
2019-03-30T08:27:08.519Z,18.43
2019-03-30T08:29:36.958Z,18.60
2019-03-30T08:32:05.463Z,14.43
2019-03-30T08:34:34.063Z,18.33
2019-03-30T08:37:02.497Z,14.47
2019-03-30T08:39:30.922Z,15.93
2019-03-30T08:41:59.511Z,15.50
2019-03-30T08:44:27.942Z,16.77
2019-03-30T08:46:56.638Z,18.40
2019-03-30T08:49:25.213Z,17.70
2019-03-30T08:51:53.707Z,19.67
2019-03-30T08:54:22.151Z,15.60
2019-03-30T08:56:50.611Z,17.07
2019-03-30T08:59:19.038Z,17.57
2019-03-30T09:58:25.168Z,16.13
2019-03-30T10:00:53.621Z,17.90
2019-03-30T10:03:22.106Z,23.00
2019-03-30T10:05:50.549Z,16.93
2019-03-30T10:08:19.004Z,19.10
2019-03-30T10:10:47.484Z,18.83
2019-03-30T10:13:15.927Z,17.17
2019-03-30T10:15:44.362Z,18.23
2019-03-30T10:18:13.046Z,20.83
2019-03-30T10:20:41.487Z,19.27
2019-03-30T10:23:09.926Z,17.03
2019-03-30T10:25:38.409Z,21.03
2019-03-30T10:28:06.916Z,21.93
2019-03-30T10:30:35.454Z,19.93
2019-03-30T10:33:03.909Z,22.07
2019-03-30T10:35:32.367Z,20.37
2019-03-30T10:38:00.871Z,20.20
2019-03-30T10:40:29.315Z,19.77
2019-03-30T10:42:57.749Z,21.60
2019-03-30T10:45:26.543Z,22.97
2019-03-30T10:47:55.001Z,23.47
2019-03-30T10:50:23.442Z,22.27
2019-03-30T10:52:51.882Z,22.37
2019-03-30T10:55:20.689Z,22.53
2019-03-30T10:57:49.124Z,21.50
2019-03-30T11:00:35.210Z,22.80
2019-03-30T11:03:04.137Z,20.23
2019-03-30T11:05:32.565Z,24.17
2019-03-30T11:08:01.224Z,24.13
2019-03-30T11:10:29.673Z,21.03
2019-03-30T11:12:58.404Z,24.40
2019-03-30T11:15:27.194Z,22.13
2019-03-30T11:17:55.642Z,24.10
2019-03-30T11:20:24.074Z,20.77
2019-03-30T11:22:52.599Z,21.83
2019-03-30T11:25:21.356Z,21.90
2019-03-30T11:27:49.799Z,21.30
2019-03-30T11:30:18.630Z,21.73
2019-03-30T11:32:47.087Z,20.33
2019-03-30T11:35:15.514Z,20.67
2019-03-30T11:37:44.004Z,23.23
2019-03-30T11:40:12.583Z,22.63
2019-03-30T11:42:41.026Z,21.57
2019-03-30T11:45:09.997Z,19.20
2019-03-30T11:47:38.431Z,18.27
2019-03-30T11:50:07.618Z,18.43
2019-03-30T11:52:36.096Z,16.07
2019-03-30T11:55:20.660Z,17.77
2019-03-30T11:57:36.839Z,17.90
2019-03-30T12:00:07.199Z,18.87
2019-03-30T12:02:35.638Z,17.27
2019-03-30T12:05:07.942Z,16.07
2019-03-30T12:07:36.402Z,17.67
2019-03-30T12:10:06.449Z,17.87
2019-03-30T12:12:37.305Z,17.03
2019-03-30T12:15:07.374Z,16.23
2019-03-30T12:17:35.898Z,14.17
2019-03-30T12:20:06.724Z,14.03
2019-03-30T12:22:35.208Z,11.17
2019-03-30T12:25:04.184Z,8.27
2019-03-30T12:27:32.615Z,8.10
2019-03-30T12:30:01.142Z,8.03
2019-03-30T12:32:29.579Z,9.00
2019-03-30T12:34:58.008Z,8.20
2019-03-30T12:37:26.756Z,7.70
2019-03-30T12:39:58.286Z,6.73
2019-03-30T12:42:25.905Z,6.80
2019-03-30T12:44:54.362Z,8.40
2019-03-30T12:47:22.799Z,9.90
2019-03-30T12:49:51.230Z,9.47
2019-03-30T12:52:19.862Z,14.40
2019-03-30T12:54:48.310Z,15.63
2019-03-30T12:57:16.831Z,12.27
2019-03-30T12:59:45.294Z,13.57
2019-03-30T13:02:13.727Z,12.93
2019-03-30T13:04:43.263Z,9.33
2019-03-30T13:07:11.906Z,11.60
2019-03-30T13:09:40.371Z,11.27
2019-03-30T13:12:08.966Z,12.00
2019-03-30T13:14:37.745Z,12.20
2019-03-30T13:17:06.236Z,11.93
2019-03-30T13:19:34.768Z,14.60
2019-03-30T13:22:03.234Z,14.73
2019-03-30T13:24:31.673Z,13.40
2019-03-30T13:27:00.170Z,12.23
2019-03-30T13:29:28.639Z,13.23
2019-03-30T13:31:57.071Z,9.87
2019-03-30T13:34:25.510Z,10.93
2019-03-30T13:36:54.790Z,14.13
2019-03-30T13:39:23.593Z,12.10
2019-03-30T13:41:52.037Z,11.07
2019-03-30T13:44:20.496Z,10.07
2019-03-30T13:46:49.358Z,11.10
2019-03-30T13:49:17.808Z,11.63
2019-03-30T13:51:46.262Z,9.77
2019-03-30T13:54:14.750Z,12.13
2019-03-30T13:56:43.612Z,9.47
2019-03-30T13:59:12.412Z,10.40
2019-03-30T14:01:40.842Z,8.83
2019-03-30T14:04:09.271Z,8.70
2019-03-30T14:06:38.986Z,8.23
2019-03-30T14:09:07.572Z,7.70
2019-03-30T14:11:36.055Z,7.80
2019-03-30T14:14:04.957Z,9.07
2019-03-30T14:16:33.378Z,8.37
2019-03-30T14:19:01.953Z,7.97
2019-03-30T14:21:30.919Z,7.70
2019-03-30T14:23:59.346Z,7.20
2019-03-30T14:26:31.523Z,7.20
2019-03-30T14:28:58.037Z,7.63
2019-03-30T14:31:26.477Z,8.03
2019-03-30T14:33:54.911Z,7.40
2019-03-30T14:36:23.525Z,7.00
2019-03-30T14:38:51.624Z,7.27
2019-03-30T14:41:20.335Z,7.27
2019-03-30T14:43:48.812Z,7.60
2019-03-30T14:46:17.821Z,7.23
2019-03-30T14:48:46.336Z,7.73
2019-03-30T14:51:14.846Z,7.90
2019-03-30T14:53:43.279Z,7.03
2019-03-30T14:56:11.714Z,7.33
2019-03-30T14:58:40.229Z,6.90
2019-03-30T15:01:08.764Z,6.70
2019-03-30T15:03:37.202Z,7.10
2019-03-30T15:06:07.113Z,7.33
2019-03-30T15:08:35.824Z,7.33
2019-03-30T15:11:04.510Z,6.97
2019-03-30T15:13:32.967Z,6.87
2019-03-30T15:16:01.472Z,13.20
2019-03-30T15:18:29.932Z,8.70
2019-03-30T15:20:58.386Z,6.37
2019-03-30T15:23:27.347Z,13.93
2019-03-30T15:25:55.868Z,9.43
2019-03-30T15:28:24.325Z,9.43
2019-03-30T15:30:52.763Z,11.33
2019-03-30T15:33:21.194Z,6.07
2019-03-30T15:35:49.932Z,6.63
2019-03-30T15:38:18.358Z,10.73
2019-03-30T15:40:46.799Z,10.43
2019-03-30T15:43:15.281Z,9.70
2019-03-30T15:45:43.754Z,7.93
2019-03-30T15:48:12.260Z,6.90
2019-03-30T15:50:40.733Z,6.17
2019-03-30T15:53:09.166Z,6.60
2019-03-30T15:55:37.672Z,6.50
2019-03-30T15:58:06.148Z,6.00
2019-03-30T16:00:34.574Z,6.83
2019-03-30T16:03:03.095Z,8.53
2019-03-30T16:05:31.621Z,7.37
2019-03-30T16:08:00.119Z,8.40
2019-03-30T16:10:28.618Z,6.17
2019-03-30T16:12:57.080Z,7.20
2019-03-30T16:15:25.605Z,6.00
2019-03-30T16:17:54.039Z,5.80
2019-03-30T16:20:22.767Z,6.30
2019-03-30T16:22:51.204Z,6.53
2019-03-30T16:25:19.636Z,6.70
2019-03-30T16:27:48.147Z,6.50
2019-03-30T16:30:17.014Z,6.60
2019-03-30T16:32:45.523Z,6.83
2019-03-30T16:35:13.994Z,6.57
2019-03-30T16:37:42.428Z,6.37
2019-03-30T16:40:10.995Z,6.40
2019-03-30T16:42:39.437Z,7.23
2019-03-30T16:45:08.304Z,7.07
2019-03-30T16:47:36.735Z,7.17
2019-03-30T16:50:07.593Z,5.87
2019-03-30T16:52:36.018Z,5.93
2019-03-30T16:55:04.821Z,6.30
2019-03-30T16:57:43.265Z,6.90
2019-03-30T17:00:05.340Z,6.60
2019-03-30T17:02:33.849Z,5.80
2019-03-30T17:05:02.408Z,7.17
2019-03-30T17:07:30.835Z,6.63
2019-03-30T17:09:59.264Z,8.60
2019-03-30T17:12:28.155Z,8.67
2019-03-30T17:14:56.682Z,8.40
2019-03-30T17:17:25.115Z,8.23
2019-03-30T17:19:53.612Z,7.97
2019-03-30T17:22:22.040Z,9.27
2019-03-30T17:24:50.473Z,7.90
2019-03-30T17:27:18.930Z,8.03
2019-03-30T17:29:47.367Z,9.90
2019-03-30T17:32:15.878Z,18.10
2019-03-30T17:34:44.757Z,17.37
2019-03-30T17:37:14.648Z,12.63
2019-03-30T17:39:43.294Z,10.03
2019-03-30T17:42:11.994Z,9.47
2019-03-30T17:44:40.426Z,9.13
2019-03-30T17:47:08.858Z,8.73
2019-03-30T17:49:37.505Z,8.83
2019-03-30T17:52:05.947Z,10.20
2019-03-30T17:54:34.373Z,10.07
2019-03-30T17:57:02.907Z,9.57
2019-03-30T17:59:31.333Z,9.87
2019-03-30T18:01:59.770Z,9.37
2019-03-30T18:04:28.519Z,9.47
2019-03-30T18:06:57.038Z,10.53
2019-03-30T18:09:25.557Z,10.40
2019-03-30T18:11:54.122Z,11.00
2019-03-30T18:14:22.554Z,16.30
2019-03-30T18:16:50.990Z,14.00
2019-03-30T18:19:19.459Z,24.00
2019-03-30T18:21:47.896Z,28.13
2019-03-30T18:24:16.431Z,20.33
2019-03-30T18:26:45.200Z,16.73
2019-03-30T18:29:13.629Z,17.40
2019-03-30T18:31:42.495Z,16.97
2019-03-30T18:34:11.111Z,16.97
2019-03-30T18:36:40.856Z,20.43
2019-03-30T18:39:10.296Z,17.03
2019-03-30T18:41:38.941Z,15.33
2019-03-30T18:44:07.674Z,19.40
2019-03-30T18:46:36.112Z,21.13
2019-03-30T18:49:04.678Z,20.20
2019-03-30T18:51:33.110Z,23.00
2019-03-30T18:54:02.293Z,20.97
2019-03-30T18:56:31.111Z,24.83
2019-03-30T18:58:59.560Z,25.23
2019-03-30T19:01:27.995Z,25.03
2019-03-30T19:03:56.899Z,20.60
2019-03-30T19:06:25.340Z,16.53
2019-03-30T19:08:53.890Z,19.20
2019-03-30T19:11:22.363Z,37.00
2019-03-30T19:13:51.555Z,36.23
2019-03-30T19:16:20.122Z,31.73
2019-03-30T19:18:48.765Z,27.17
2019-03-30T19:21:17.202Z,20.10
2019-03-30T19:23:45.642Z,19.80
2019-03-30T19:26:14.106Z,19.17
2019-03-30T19:28:55.682Z,20.77
2019-03-30T19:31:12.702Z,19.40
2019-03-30T19:33:41.171Z,16.10
2019-03-30T19:36:10.196Z,14.37
2019-03-30T19:38:38.730Z,15.33
2019-03-30T19:41:07.975Z,16.63
2019-03-30T19:43:36.411Z,22.53
2019-03-30T19:46:05.025Z,25.53
2019-03-30T19:48:36.779Z,22.40
2019-03-30T19:51:03.650Z,17.20
2019-03-30T19:53:32.088Z,15.80
2019-03-30T19:56:00.637Z,15.30
2019-03-30T19:58:29.084Z,13.67
2019-03-30T20:00:57.591Z,15.53
2019-03-30T20:03:26.062Z,15.40
2019-03-30T20:05:54.503Z,12.97
2019-03-30T20:08:22.943Z,15.67
2019-03-30T20:10:51.462Z,14.87
2019-03-30T20:13:20.198Z,14.93
2019-03-30T20:15:48.916Z,16.47
2019-03-30T20:18:17.683Z,16.53
2019-03-30T20:20:46.190Z,15.67
2019-03-30T20:23:14.697Z,17.77
2019-03-30T20:25:43.175Z,16.53
2019-03-30T20:28:11.611Z,15.87
2019-03-30T20:30:40.051Z,25.00
2019-03-30T20:33:08.803Z,15.63
2019-03-30T20:35:37.306Z,14.53
2019-03-30T20:38:06.112Z,16.47
2019-03-30T20:40:34.810Z,13.97
2019-03-30T20:43:03.254Z,15.63
2019-03-30T20:45:31.703Z,16.40
2019-03-30T20:48:00.255Z,17.17
2019-03-30T20:50:28.711Z,14.60
2019-03-30T20:52:57.150Z,14.10
2019-03-30T20:55:25.726Z,14.13
2019-03-30T20:57:54.239Z,15.33
2019-03-30T21:00:22.679Z,16.80
2019-03-30T21:02:51.549Z,17.27
2019-03-30T21:05:20.035Z,17.03
2019-03-30T21:07:48.502Z,19.03
2019-03-30T21:10:17.212Z,16.13
2019-03-30T21:12:45.652Z,17.97
2019-03-30T21:15:14.327Z,16.17
2019-03-30T21:17:42.823Z,14.80
2019-03-30T21:20:11.537Z,17.87
2019-03-30T21:22:39.973Z,16.90
2019-03-30T21:25:08.575Z,18.33
2019-03-30T21:27:37.045Z,16.40
2019-03-30T21:30:08.427Z,15.97
2019-03-30T21:32:37.098Z,16.60
2019-03-30T21:35:07.176Z,15.43
2019-03-30T21:37:35.618Z,14.27
2019-03-30T21:40:05.815Z,15.27
2019-03-30T21:42:34.349Z,15.37
2019-03-30T21:45:02.899Z,14.57
2019-03-30T21:47:31.646Z,14.30
2019-03-30T21:50:00.537Z,14.70
2019-03-30T21:52:29.061Z,16.77
2019-03-30T21:54:58.143Z,17.73
2019-03-30T21:57:27.030Z,15.20
2019-03-30T22:00:09.093Z,17.80
2019-03-30T22:02:25.882Z,15.27
2019-03-30T22:04:54.815Z,16.23
2019-03-30T22:07:23.252Z,16.30
2019-03-30T22:09:52.106Z,17.73
2019-03-30T22:12:20.717Z,18.33
2019-03-30T22:14:49.150Z,18.97
2019-03-30T22:17:17.852Z,15.30
2019-03-30T22:19:46.330Z,17.53
2019-03-30T22:22:15.078Z,16.57
2019-03-30T22:24:43.732Z,16.67
2019-03-30T22:27:12.274Z,15.30
2019-03-30T22:29:40.844Z,17.27
2019-03-30T22:32:09.399Z,15.80
2019-03-30T22:34:37.918Z,18.20
2019-03-30T22:37:06.660Z,16.63
2019-03-30T22:39:35.414Z,17.17
2019-03-30T22:42:03.923Z,17.00
2019-03-30T22:44:32.354Z,15.70
2019-03-30T22:47:00.837Z,16.00
2019-03-30T22:49:29.619Z,15.63
2019-03-30T22:51:58.068Z,15.47
2019-03-30T22:54:26.526Z,18.17
2019-03-30T22:56:54.966Z,16.90
2019-03-30T22:59:23.404Z,18.43
2019-03-30T23:01:51.892Z,16.30
2019-03-30T23:04:20.395Z,17.10
2019-03-30T23:06:48.840Z,16.47
2019-03-30T23:09:17.302Z,17.17
2019-03-30T23:11:45.739Z,17.83
2019-03-30T23:14:14.177Z,13.87
2019-03-30T23:16:42.643Z,16.83
2019-03-30T23:19:11.068Z,16.23
2019-03-30T23:21:39.551Z,17.10
2019-03-30T23:24:08.267Z,17.17
2019-03-30T23:26:37.627Z,15.97
2019-03-30T23:29:06.065Z,15.87
2019-03-30T23:31:34.505Z,15.67
2019-03-30T23:34:02.958Z,17.03
2019-03-30T23:36:31.381Z,16.33
2019-03-30T23:38:59.859Z,14.60
2019-03-30T23:41:28.362Z,16.83
2019-03-30T23:43:56.801Z,14.30
2019-03-30T23:46:26.419Z,14.03
2019-03-30T23:48:54.859Z,15.13
2019-03-30T23:51:23.368Z,15.40
2019-03-30T23:53:51.858Z,14.33
2019-03-30T23:56:21.439Z,15.60
2019-03-30T23:58:50.737Z,14.13
